Archival Weather

Al Kharj

Al Kharj, Saudi Arabia (OEKJ)

Report from: Thursday, September 21, 2023 12:00 AM UTC
Current time: Friday, February 23, 2024 7:14 PM UTC

Current weather – Weather history – Daily summaries
Weather forecast

Temperature29.0°C (84.2°F)
Heat index27.7°C (81.9°F)
Dew point6.0°C (42.8°F)
Winds 5 kts (2.6 m/s, 5.8 mph) East-Northeast (60°)
Clouds Sky clear
Altimeter29.88 in.Hg (1012 mB)
Relative humidity23 %
Density altitude1,789 ft. (545 m)
Remarks Ceiling and visibility OK
Flight conditions Visual Meteorological Conditions
Raw dataOEKJ 210000Z 06005KT CAVOK 29/06 Q1012
An error has occurred. This application may no longer respond until reloaded. Reload 🗙